Time;durP1;ratioP1;P1;durP2;ratioP2;P2;SDS_P1;SDS_P2;PMS_P1;PMS_P2;Temp;Humidity;BMP_temperature;BMP_pressure;BME280_temperature;BME280_humidity;BME280_pressure;Samples;Min_cycle;Max_cycle;Signal;HPM_P1;HPM_P2
2023/06/17 00:01:19;;;;;;;10.05;2.72;;;;;;;-147.53;100.00;57128.34;10393633;28;20077;-76
2023/06/17 00:06:21;;;;;;;7.45;3.35;;;;;;;-147.53;100.00;57128.34;10430075;28;20046;-76
2023/06/17 00:11:23;;;;;;;5.85;3.00;;;;;;;-147.53;100.00;57128.34;10430629;28;20140;-76
2023/06/17 00:16:24;;;;;;;6.40;3.08;;;;;;;-147.53;100.00;57128.34;10402651;28;20123;-77
2023/06/17 00:21:26;;;;;;;5.30;2.72;;;;;;;-147.53;100.00;57128.34;10388539;28;20049;-76
2023/06/17 00:26:27;;;;;;;9.55;3.90;;;;;;;-147.53;100.00;57128.34;10396331;28;20049;-76
2023/06/17 00:31:29;;;;;;;17.77;3.65;;;;;;;-147.53;100.00;57128.34;10395938;28;20049;-76
2023/06/17 00:36:31;;;;;;;6.68;3.50;;;;;;;-147.53;100.00;57128.34;10431692;28;20072;-76
2023/06/17 00:41:32;;;;;;;8.65;4.22;;;;;;;-147.53;100.00;57128.34;10395091;28;20050;-77
2023/06/17 00:46:38;;;;;;;5.65;3.30;;;;;;;-147.53;100.00;57128.34;10393294;28;20099;-77
2023/06/17 00:51:39;;;;;;;10.32;3.85;;;;;;;-147.53;100.00;57128.34;10393933;28;20061;-76
2023/06/17 00:56:43;;;;;;;9.68;3.75;;;;;;;-147.53;100.00;57128.34;10398741;28;20045;-76
2023/06/17 01:01:44;;;;;;;6.40;3.85;;;;;;;-147.53;100.00;57128.34;10387624;28;20111;-76
2023/06/17 01:06:59;;;;;;;6.20;3.13;;;;;;;-147.53;100.00;57128.34;10387423;28;20049;-76
2023/06/17 01:12:04;;;;;;;10.18;4.03;;;;;;;-147.53;100.00;57128.34;10389968;28;20087;-76
2023/06/17 01:17:12;;;;;;;14.27;4.72;;;;;;;-147.53;100.00;57128.34;10389547;28;20070;-76
2023/06/17 01:22:16;;;;;;;6.07;3.38;;;;;;;-147.53;100.00;57128.34;10386113;28;20057;-77
2023/06/17 01:27:18;;;;;;;7.25;3.47;;;;;;;-147.53;100.00;57128.34;10387505;28;20557;-77
2023/06/17 01:32:22;;;;;;;6.43;3.28;;;;;;;-147.53;100.00;57128.34;10400340;28;20049;-76
2023/06/17 01:37:32;;;;;;;7.05;3.75;;;;;;;-147.53;100.00;57128.34;10384388;28;20049;-76
2023/06/17 01:42:39;;;;;;;12.40;3.90;;;;;;;-147.53;100.00;57128.34;10383919;28;20779;-77
2023/06/17 01:47:42;;;;;;;6.93;3.60;;;;;;;-147.53;100.00;57128.34;10383640;28;20041;-77
2023/06/17 01:52:45;;;;;;;7.25;4.43;;;;;;;-147.53;100.00;57128.34;10384190;28;20132;-76
2023/06/17 01:57:47;;;;;;;10.88;5.68;;;;;;;-147.53;100.00;57128.34;10366461;28;20053;-77
2023/06/17 02:02:49;;;;;;;7.55;4.05;;;;;;;-147.53;100.00;57128.34;10382221;28;20515;-77
2023/06/17 02:07:52;;;;;;;13.27;5.15;;;;;;;-147.53;100.00;57128.34;10382006;28;20057;-77
2023/06/17 02:12:54;;;;;;;8.45;4.18;;;;;;;-147.53;100.00;57128.34;10381187;28;20131;-76
2023/06/17 02:17:56;;;;;;;9.77;4.53;;;;;;;-147.53;100.00;57128.34;10381411;28;20046;-77
2023/06/17 02:22:58;;;;;;;7.97;4.38;;;;;;;-147.53;100.00;57128.34;10380686;28;20046;-76
2023/06/17 02:28:00;;;;;;;12.38;4.88;;;;;;;-147.53;100.00;57128.34;10380466;28;20089;-77
2023/06/17 02:33:01;;;;;;;7.78;3.90;;;;;;;-147.53;100.00;57128.34;10380255;28;20042;-77
2023/06/17 02:38:03;;;;;;;9.25;4.68;;;;;;;-147.53;100.00;57128.34;10417396;28;20081;-77
2023/06/17 02:43:05;;;;;;;9.40;4.75;;;;;;;-147.53;100.00;57128.34;10379216;28;20045;-77
2023/06/17 02:48:06;;;;;;;6.55;4.00;;;;;;;-147.53;100.00;57128.34;10399965;28;20045;-77
2023/06/17 02:53:08;;;;;;;8.63;4.20;;;;;;;-147.53;100.00;57128.34;10379222;28;20046;-77
2023/06/17 02:58:18;;;;;;;8.07;4.72;;;;;;;-147.53;100.00;57128.34;10399168;28;20041;-77
2023/06/17 03:03:34;;;;;;;8.85;4.45;;;;;;;-147.53;100.00;57128.34;10419375;28;20049;-76
2023/06/17 03:08:39;;;;;;;10.48;4.88;;;;;;;-147.53;100.00;57128.34;10373923;28;20046;-76
2023/06/17 03:13:41;;;;;;;11.13;4.53;;;;;;;-147.53;100.00;57128.34;10377663;28;20136;-77
2023/06/17 03:18:51;;;;;;;13.10;4.80;;;;;;;-147.53;100.00;57128.34;10375047;28;21574;-76
2023/06/17 03:23:53;;;;;;;11.35;4.85;;;;;;;-147.53;100.00;57128.34;10378540;28;20499;-76
2023/06/17 03:28:55;;;;;;;13.13;4.47;;;;;;;-147.53;100.00;57128.34;10393514;28;20692;-76
2023/06/17 03:33:57;;;;;;;8.93;4.93;;;;;;;-147.53;100.00;57128.34;10386408;28;20046;-76
2023/06/17 03:38:59;;;;;;;8.02;4.80;;;;;;;-147.53;100.00;57128.34;10384490;28;20038;-77
2023/06/17 03:44:05;;;;;;;9.20;4.35;;;;;;;-147.53;100.00;57128.34;10388789;28;20042;-77
2023/06/17 03:49:07;;;;;;;10.43;5.05;;;;;;;-147.53;100.00;57128.34;10386018;28;20507;-76
2023/06/17 03:54:10;;;;;;;8.57;4.28;;;;;;;-147.53;100.00;57128.34;10383625;28;20065;-77
2023/06/17 03:59:11;;;;;;;9.55;4.78;;;;;;;-147.53;100.00;57128.34;10383474;28;20042;-76
2023/06/17 04:04:13;;;;;;;11.32;4.25;;;;;;;-147.53;100.00;57128.34;10382739;28;20071;-78
2023/06/17 04:09:15;;;;;;;7.07;4.22;;;;;;;-147.53;100.00;57128.34;10382722;28;20072;-77
2023/06/17 04:14:16;;;;;;;11.75;4.32;;;;;;;-147.53;100.00;57128.34;10381895;28;20046;-77
2023/06/17 04:19:20;;;;;;;6.93;3.60;;;;;;;-147.53;100.00;57128.34;10381013;28;20459;-77
2023/06/17 04:24:22;;;;;;;9.40;4.50;;;;;;;-147.53;100.00;57128.34;10380617;28;20543;-77
2023/06/17 04:29:24;;;;;;;12.35;4.93;;;;;;;-147.53;100.00;57128.34;10380895;28;20431;-76
2023/06/17 04:34:26;;;;;;;8.25;4.85;;;;;;;-147.53;100.00;57128.34;10379985;28;20825;-77
2023/06/17 04:39:34;;;;;;;8.18;3.60;;;;;;;-147.53;100.00;57128.34;10400498;28;20507;-77
2023/06/17 04:44:39;;;;;;;7.68;4.25;;;;;;;-147.53;100.00;57128.34;10383578;28;20588;-77
2023/06/17 04:49:44;;;;;;;8.50;3.92;;;;;;;-147.53;100.00;57128.34;10379797;28;20486;-77
2023/06/17 04:54:46;;;;;;;7.72;3.78;;;;;;;-147.53;100.00;57128.34;10381541;28;20046;-76
2023/06/17 04:59:48;;;;;;;10.80;4.72;;;;;;;-147.53;100.00;57128.34;10395038;28;20045;-76
2023/06/17 05:04:50;;;;;;;8.10;4.15;;;;;;;-147.53;100.00;57128.34;10378188;28;20041;-77
2023/06/17 05:09:51;;;;;;;8.05;4.03;;;;;;;-147.53;100.00;57128.34;10377732;28;20099;-77
2023/06/17 05:14:54;;;;;;;10.45;3.53;;;;;;;-147.53;100.00;57128.34;10376797;28;20403;-77
2023/06/17 05:19:56;;;;;;;8.30;4.32;;;;;;;-147.53;100.00;57128.34;10377113;28;20052;-77
2023/06/17 05:24:58;;;;;;;10.40;4.82;;;;;;;-147.53;100.00;57128.34;10376247;28;20436;-77
2023/06/17 05:30:02;;;;;;;7.60;3.80;;;;;;;-147.53;100.00;57128.34;10376235;28;20544;-76
2023/06/17 05:35:04;;;;;;;16.40;4.47;;;;;;;-147.53;100.00;57128.34;10379351;28;20088;-77
2023/06/17 05:40:08;;;;;;;8.40;3.92;;;;;;;-147.53;100.00;57128.34;10375338;28;20053;-77
2023/06/17 05:45:10;;;;;;;7.40;3.53;;;;;;;-147.53;100.00;57128.34;10360120;28;20061;-77
2023/06/17 05:50:13;;;;;;;13.80;4.53;;;;;;;-147.53;100.00;57128.34;10375345;28;20076;-78
2023/06/17 05:55:16;;;;;;;9.70;4.30;;;;;;;-147.53;100.00;57128.34;10408747;28;20045;-77
2023/06/17 06:00:19;;;;;;;9.02;4.40;;;;;;;-147.53;100.00;57128.34;10397607;28;20053;-77
2023/06/17 06:05:21;;;;;;;10.98;5.53;;;;;;;-147.53;100.00;57128.34;10370224;28;20046;-77
2023/06/17 06:10:26;;;;;;;12.60;5.22;;;;;;;-147.53;100.00;57128.34;10372326;28;20709;-78
2023/06/17 06:15:30;;;;;;;9.57;5.18;;;;;;;-147.53;100.00;57128.34;10372978;28;20640;-77
2023/06/17 06:20:33;;;;;;;18.40;5.40;;;;;;;-147.53;100.00;57128.34;10377782;28;20056;-77
2023/06/17 06:25:35;;;;;;;16.40;4.72;;;;;;;-147.53;100.00;57128.34;10373060;28;20162;-78
2023/06/17 06:30:37;;;;;;;11.50;5.78;;;;;;;-147.53;100.00;57128.34;10355166;28;20041;-77
2023/06/17 06:35:39;;;;;;;10.93;4.63;;;;;;;-147.53;100.00;57128.34;10374486;28;20076;-78
2023/06/17 06:40:44;;;;;;;9.45;4.38;;;;;;;-147.53;100.00;57128.34;10363399;28;20041;-78
2023/06/17 06:45:46;;;;;;;11.70;4.85;;;;;;;-147.53;100.00;57128.34;10409186;28;20041;-78
2023/06/17 06:50:48;;;;;;;9.68;3.63;;;;;;;-147.53;100.00;57128.34;10371127;28;20091;-77
2023/06/17 06:55:52;;;;;;;8.65;3.67;;;;;;;-147.53;100.00;57128.34;10413417;28;20139;-77
2023/06/17 07:00:55;;;;;;;10.32;4.88;;;;;;;-147.53;100.00;57128.34;10369166;28;20042;-78
2023/06/17 07:05:57;;;;;;;10.98;4.65;;;;;;;-147.53;100.00;57128.34;10370655;28;20117;-77
2023/06/17 07:10:59;;;;;;;6.53;3.83;;;;;;;-147.53;100.00;57128.34;10368421;28;20041;-78
2023/06/17 07:16:02;;;;;;;13.85;4.45;;;;;;;-147.53;100.00;57128.34;10373994;28;20124;-77
2023/06/17 07:21:03;;;;;;;15.30;4.68;;;;;;;-147.53;100.00;57128.34;10368596;28;20049;-77
2023/06/17 07:26:06;;;;;;;10.73;4.68;;;;;;;-147.53;100.00;57128.34;10366718;28;20049;-78
2023/06/17 07:31:08;;;;;;;10.85;4.90;;;;;;;-147.53;100.00;57128.34;10363393;28;20046;-77
2023/06/17 07:36:11;;;;;;;8.75;3.95;;;;;;;-147.53;100.00;57128.34;10369652;28;20044;-78
2023/06/17 07:41:13;;;;;;;13.63;4.38;;;;;;;-147.53;100.00;57128.34;10366575;28;20678;-77
2023/06/17 07:46:15;;;;;;;12.05;4.10;;;;;;;-147.53;100.00;57128.34;10375333;28;20058;-77
2023/06/17 07:51:17;;;;;;;11.48;4.53;;;;;;;-147.53;100.00;57128.34;10366203;28;20038;-77
2023/06/17 07:56:20;;;;;;;9.60;4.93;;;;;;;-147.53;100.00;57128.34;10370848;28;20061;-77
2023/06/17 08:01:22;;;;;;;8.75;4.72;;;;;;;-147.53;100.00;57128.34;10372070;28;20050;-77
2023/06/17 08:06:24;;;;;;;11.32;4.18;;;;;;;-147.53;100.00;57128.34;10407755;28;20050;-77
2023/06/17 08:11:26;;;;;;;8.55;4.40;;;;;;;-147.53;100.00;57128.34;10407575;28;20053;-79
2023/06/17 08:16:28;;;;;;;7.90;4.25;;;;;;;-147.53;100.00;57128.34;10390231;28;20049;-80
2023/06/17 08:21:30;;;;;;;10.48;4.10;;;;;;;-147.53;100.00;57128.34;10374264;28;20058;-78
2023/06/17 08:26:32;;;;;;;8.88;4.40;;;;;;;-147.53;100.00;57128.34;10373969;28;20068;-79
2023/06/17 08:31:33;;;;;;;8.38;3.95;;;;;;;-147.53;100.00;57128.34;10377969;28;20057;-78
2023/06/17 08:36:38;;;;;;;9.85;4.05;;;;;;;-147.53;100.00;57128.34;10377146;28;20064;-81
2023/06/17 08:41:41;;;;;;;9.93;4.30;;;;;;;-147.53;100.00;57128.34;10378262;28;20103;-82
2023/06/17 08:46:44;;;;;;;11.73;4.25;;;;;;;-147.53;100.00;57128.34;10377538;28;20480;-83
2023/06/17 08:51:49;;;;;;;7.93;3.78;;;;;;;-147.53;100.00;57128.34;10376177;28;20128;-77
2023/06/17 08:56:52;;;;;;;8.27;4.05;;;;;;;-147.53;100.00;57128.34;10376430;28;20137;-79
2023/06/17 09:01:55;;;;;;;9.32;4.93;;;;;;;-147.53;100.00;57128.34;10375649;28;20137;-83
2023/06/17 09:06:57;;;;;;;8.82;4.40;;;;;;;-147.53;100.00;57128.34;10382634;28;20072;-84
2023/06/17 09:12:05;;;;;;;10.02;5.22;;;;;;;-147.53;100.00;57128.34;10376643;28;20077;-83
2023/06/17 09:17:07;;;;;;;13.23;4.90;;;;;;;-147.53;100.00;57128.34;10370777;28;20038;-86
2023/06/17 09:22:12;;;;;;;9.95;4.40;;;;;;;-147.53;100.00;57128.34;10368036;28;20042;-86
2023/06/17 09:27:21;;;;;;;10.27;3.97;;;;;;;-147.53;100.00;57128.34;10368346;28;20073;-86
2023/06/17 09:32:22;;;;;;;8.95;4.18;;;;;;;-147.53;100.00;57128.34;10367986;28;20140;-86
2023/06/17 09:37:25;;;;;;;9.65;4.00;;;;;;;-147.53;100.00;57128.34;10367303;28;20050;-85
2023/06/17 09:42:32;;;;;;;9.93;5.07;;;;;;;-147.53;100.00;57128.34;10373322;28;20451;-85
2023/06/17 09:47:34;;;;;;;8.13;4.22;;;;;;;-147.53;100.00;57128.34;10398983;28;20104;-84
2023/06/17 09:52:39;;;;;;;9.48;4.57;;;;;;;-147.53;100.00;57128.34;10366343;28;20076;-84
2023/06/17 09:57:43;;;;;;;11.70;4.82;;;;;;;-147.53;100.00;57128.34;10366485;28;20101;-84
2023/06/17 10:02:45;;;;;;;10.75;4.95;;;;;;;-147.53;100.00;57128.34;10373170;28;20054;-85
2023/06/17 10:07:49;;;;;;;10.23;5.10;;;;;;;-147.53;100.00;57128.34;10368503;28;20045;-84
2023/06/17 10:12:54;;;;;;;8.98;4.22;;;;;;;-147.53;100.00;57128.34;10395870;28;20049;-85
2023/06/17 10:17:56;;;;;;;8.88;4.55;;;;;;;-147.53;100.00;57128.34;10370135;28;20044;-84
2023/06/17 10:23:02;;;;;;;10.35;4.45;;;;;;;-147.53;100.00;57128.34;10372571;28;20442;-84
2023/06/17 10:28:05;;;;;;;8.85;4.47;;;;;;;-147.53;100.00;57128.34;10368722;28;20068;-87
2023/06/17 10:33:08;;;;;;;10.07;3.88;;;;;;;-147.53;100.00;57128.34;10381278;28;20050;-85
2023/06/17 10:38:26;;;;;;;9.10;3.72;;;;;;;-147.53;100.00;57128.34;10369521;28;20045;-84
2023/06/17 10:43:38;;;;;;;7.53;3.42;;;;;;;-147.53;100.00;57128.34;10376398;28;20050;-85
2023/06/17 10:48:40;;;;;;;7.28;3.50;;;;;;;-147.53;100.00;57128.34;10348322;28;20053;-83
2023/06/17 10:53:51;;;;;;;8.10;3.92;;;;;;;-147.53;100.00;57128.34;10359721;28;20077;-83
2023/06/17 10:58:53;;;;;;;8.07;3.42;;;;;;;-147.53;100.00;57128.34;10377550;28;20290;-81
2023/06/17 11:03:58;;;;;;;10.63;4.03;;;;;;;-147.53;100.00;57128.34;10375155;28;20057;-80
2023/06/17 11:09:28;;;;;;;7.60;3.97;;;;;;;-147.53;100.00;57128.34;10378812;28;20080;-84
2023/06/17 11:14:59;;;;;;;10.23;3.83;;;;;;;-147.53;100.00;57128.34;10375133;28;20042;-79
2023/06/17 11:20:04;;;;;;;7.30;3.58;;;;;;;-147.53;100.00;57128.34;10369076;28;20076;-81
2023/06/17 11:25:09;;;;;;;7.40;3.35;;;;;;;-147.53;100.00;57128.34;10382537;28;20034;-77
2023/06/17 11:30:12;;;;;;;7.75;3.65;;;;;;;-147.53;100.00;57128.34;10402852;28;20038;-75
2023/06/17 11:35:14;;;;;;;6.05;3.28;;;;;;;-147.53;100.00;57128.34;10371248;28;20038;-85
2023/06/17 11:40:17;;;;;;;6.50;3.10;;;;;;;-147.53;100.00;57128.34;10393594;28;20095;-79
2023/06/17 11:45:20;;;;;;;8.27;2.97;;;;;;;-147.53;100.00;57128.34;10386915;28;20034;-81
2023/06/17 11:50:28;;;;;;;6.38;3.25;;;;;;;-147.53;100.00;57128.34;10396177;28;20042;-79
2023/06/17 11:55:34;;;;;;;6.55;3.17;;;;;;;-147.53;100.00;57128.34;10403893;28;20046;-78
2023/06/17 12:00:36;;;;;;;9.02;3.13;;;;;;;-147.53;100.00;57128.34;10418006;28;20064;-82
2023/06/17 12:05:38;;;;;;;11.20;3.25;;;;;;;-147.53;100.00;57128.34;10409171;28;20871;-80
2023/06/17 12:10:40;;;;;;;7.07;2.55;;;;;;;-147.53;100.00;57128.34;10410335;28;20137;-80
2023/06/17 12:15:41;;;;;;;6.68;3.13;;;;;;;-147.53;100.00;57128.34;10401837;28;20053;-80
2023/06/17 12:20:50;;;;;;;7.60;2.90;;;;;;;-147.53;100.00;57128.34;10412021;28;20053;-76
2023/06/17 12:25:52;;;;;;;7.78;3.03;;;;;;;-147.53;100.00;57128.34;10408485;28;20068;-74
2023/06/17 12:30:55;;;;;;;7.70;2.78;;;;;;;-147.53;100.00;57128.34;10400581;28;20133;-75
2023/06/17 12:35:57;;;;;;;9.35;3.42;;;;;;;-147.53;100.00;57128.34;10402998;28;20510;-77
2023/06/17 12:41:00;;;;;;;7.32;2.95;;;;;;;-147.53;100.00;57128.34;10398014;28;20079;-75
2023/06/17 12:46:01;;;;;;;5.18;2.78;;;;;;;-147.53;100.00;57128.34;10402184;28;20141;-75
2023/06/17 12:51:03;;;;;;;11.23;3.15;;;;;;;-147.53;100.00;57128.34;10402991;28;20046;-75
2023/06/17 12:56:05;;;;;;;8.45;2.95;;;;;;;-147.53;100.00;57128.34;10401250;28;20041;-75
2023/06/17 13:01:07;;;;;;;5.57;3.08;;;;;;;-147.53;100.00;57128.34;10402627;28;20041;-75
2023/06/17 13:06:08;;;;;;;5.88;2.67;;;;;;;-147.53;100.00;57128.34;10401361;28;20392;-75
2023/06/17 13:11:11;;;;;;;7.22;2.75;;;;;;;-147.53;100.00;57128.34;10434594;28;20037;-75
2023/06/17 13:16:13;;;;;;;6.95;3.00;;;;;;;-147.53;100.00;57128.34;10433251;28;20100;-74
2023/06/17 13:21:14;;;;;;;6.63;2.55;;;;;;;-147.53;100.00;57128.34;10394392;28;20133;-75
2023/06/17 13:26:25;;;;;;;7.28;2.40;;;;;;;-147.53;100.00;57128.34;10401639;28;20134;-75
2023/06/17 13:31:27;;;;;;;5.40;2.65;;;;;;;-147.53;100.00;57128.34;10400096;28;20136;-75
2023/06/17 13:36:29;;;;;;;7.22;2.55;;;;;;;-147.53;100.00;57128.34;10399316;28;20119;-75
2023/06/17 13:41:30;;;;;;;5.55;2.67;;;;;;;-147.53;100.00;57128.34;10399006;28;20467;-75
2023/06/17 13:46:32;;;;;;;5.45;2.58;;;;;;;-147.53;100.00;57128.34;10399531;28;20849;-75
2023/06/17 13:51:34;;;;;;;5.90;2.80;;;;;;;-147.53;100.00;57128.34;10398391;28;20046;-75
2023/06/17 13:56:37;;;;;;;5.40;2.25;;;;;;;-147.53;100.00;57128.34;10398707;28;20059;-76
2023/06/17 14:01:39;;;;;;;7.03;2.90;;;;;;;-147.53;100.00;57128.34;10429819;28;20123;-76
2023/06/17 14:06:46;;;;;;;4.43;2.30;;;;;;;-147.53;100.00;57128.34;10390473;28;20116;-75
2023/06/17 14:11:49;;;;;;;5.78;2.58;;;;;;;-147.53;100.00;57128.34;10397879;28;20045;-75
2023/06/17 14:16:51;;;;;;;9.55;2.63;;;;;;;-147.53;100.00;57128.34;10396231;28;20123;-75
2023/06/17 14:21:55;;;;;;;4.95;1.95;;;;;;;-147.53;100.00;57128.34;10396027;28;20053;-76
2023/06/17 14:27:19;;;;;;;5.88;2.45;;;;;;;-147.53;100.00;57128.34;10397319;28;20689;-75
2023/06/17 14:32:21;;;;;;;7.28;3.05;;;;;;;-147.53;100.00;57128.34;10397115;28;20593;-75
2023/06/17 14:37:23;;;;;;;6.60;2.70;;;;;;;-147.53;100.00;57128.34;10395454;28;20076;-75
2023/06/17 14:42:24;;;;;;;5.22;2.63;;;;;;;-147.53;100.00;57128.34;10393901;28;20065;-76
2023/06/17 14:47:27;;;;;;;7.13;2.88;;;;;;;-147.53;100.00;57128.34;10393638;28;20772;-75
2023/06/17 14:52:29;;;;;;;6.10;2.65;;;;;;;-147.53;100.00;57128.34;10396087;28;20049;-75
2023/06/17 14:57:31;;;;;;;8.50;4.32;;;;;;;-147.53;100.00;57128.34;10393489;28;20084;-75
2023/06/17 15:02:47;;;;;;;5.63;2.83;;;;;;;-147.53;100.00;57128.34;10393107;28;20053;-75
2023/06/17 15:07:49;;;;;;;4.93;2.38;;;;;;;-147.53;100.00;57128.34;10391829;28;20094;-75
2023/06/17 15:12:51;;;;;;;9.57;2.80;;;;;;;-147.53;100.00;57128.34;10392425;28;20141;-74
2023/06/17 15:17:52;;;;;;;4.75;2.30;;;;;;;-147.53;100.00;57128.34;10392677;28;20575;-74
2023/06/17 15:22:54;;;;;;;5.93;2.92;;;;;;;-147.53;100.00;57128.34;10391090;28;20550;-76
2023/06/17 15:27:55;;;;;;;8.55;3.63;;;;;;;-147.53;100.00;57128.34;10390907;28;20539;-76
2023/06/17 15:32:57;;;;;;;793.45;454.80;;;;;;;-147.53;100.00;57128.34;10389180;28;20073;-77
2023/06/17 15:37:59;;;;;;;13.88;6.68;;;;;;;-147.53;100.00;57128.34;10430513;28;20103;-81
2023/06/17 15:43:00;;;;;;;511.95;423.55;;;;;;;-147.53;100.00;57128.34;10390930;28;20169;-77
2023/06/17 15:48:02;;;;;;;16.58;9.68;;;;;;;-147.53;100.00;57128.34;10392130;28;20081;-77
2023/06/17 15:53:04;;;;;;;11.32;5.65;;;;;;;-147.53;100.00;57128.34;10392078;28;20050;-78
2023/06/17 15:58:06;;;;;;;12.18;5.47;;;;;;;-147.53;100.00;57128.34;10395423;28;20144;-79
2023/06/17 16:03:07;;;;;;;22.00;10.80;;;;;;;-147.53;100.00;57128.34;10391506;28;20053;-77
2023/06/17 16:08:09;;;;;;;15.73;5.72;;;;;;;-147.53;100.00;57128.34;10392734;28;20073;-80
2023/06/17 16:13:11;;;;;;;20.13;9.50;;;;;;;-147.53;100.00;57128.34;10413938;28;20061;-80
2023/06/17 16:18:12;;;;;;;9.25;4.05;;;;;;;-147.53;100.00;57128.34;10402836;28;20069;-78
2023/06/17 16:23:18;;;;;;;14.38;5.60;;;;;;;-147.53;100.00;57128.34;10397787;28;20069;-76
2023/06/17 16:28:19;;;;;;;13.95;6.60;;;;;;;-147.53;100.00;57128.34;10393405;28;20053;-81
2023/06/17 16:33:21;;;;;;;7.65;3.83;;;;;;;-147.53;100.00;57128.34;10434562;28;20081;-75
2023/06/17 16:38:22;;;;;;;9.75;4.07;;;;;;;-147.53;100.00;57128.34;10395626;28;20403;-75
2023/06/17 16:43:24;;;;;;;8.90;3.33;;;;;;;-147.53;100.00;57128.34;10392191;28;20581;-75
2023/06/17 16:48:26;;;;;;;8.73;3.97;;;;;;;-147.53;100.00;57128.34;10430635;28;20049;-75
2023/06/17 16:53:27;;;;;;;10.65;4.20;;;;;;;-147.53;100.00;57128.34;10428468;28;20049;-77
2023/06/17 16:58:29;;;;;;;10.35;4.32;;;;;;;-147.53;100.00;57128.34;10395239;28;20041;-75
2023/06/17 17:03:30;;;;;;;12.90;4.03;;;;;;;-147.53;100.00;57128.34;10395030;28;20072;-79
2023/06/17 17:08:32;;;;;;;8.52;4.00;;;;;;;-147.53;100.00;57128.34;10399324;28;20096;-79
2023/06/17 17:13:35;;;;;;;7.43;3.90;;;;;;;-147.53;100.00;57128.34;10401043;28;20045;-77
2023/06/17 17:18:48;;;;;;;8.10;3.90;;;;;;;-147.53;100.00;57128.34;10394656;28;20041;-77
2023/06/17 17:23:50;;;;;;;8.50;3.58;;;;;;;-147.53;100.00;57128.34;10392791;28;20499;-75
2023/06/17 17:28:52;;;;;;;9.93;4.18;;;;;;;-147.53;100.00;57128.34;10388112;28;20063;-77
2023/06/17 17:33:53;;;;;;;9.45;3.17;;;;;;;-147.53;100.00;57128.34;10390761;28;20431;-76
2023/06/17 17:38:55;;;;;;;8.57;3.47;;;;;;;-147.53;100.00;57128.34;10390463;28;20053;-76
2023/06/17 17:43:56;;;;;;;7.97;3.67;;;;;;;-147.53;100.00;57128.34;10389740;28;20054;-77
2023/06/17 17:48:58;;;;;;;8.07;3.13;;;;;;;-147.53;100.00;57128.34;10387461;28;20041;-77
2023/06/17 17:54:00;;;;;;;11.95;3.63;;;;;;;-147.53;100.00;57128.34;10395803;28;20038;-76
2023/06/17 17:59:02;;;;;;;8.10;3.22;;;;;;;-147.53;100.00;57128.34;10395880;28;20047;-76
2023/06/17 18:04:03;;;;;;;8.13;3.25;;;;;;;-147.53;100.00;57128.34;10387327;28;20053;-77
2023/06/17 18:09:05;;;;;;;7.38;3.55;;;;;;;-147.53;100.00;57128.34;10419133;28;20041;-76
2023/06/17 18:14:07;;;;;;;7.82;3.63;;;;;;;-147.53;100.00;57128.34;10390304;28;20042;-77
2023/06/17 18:19:10;;;;;;;10.55;4.43;;;;;;;-147.53;100.00;57128.34;10391329;28;20062;-76
2023/06/17 18:24:15;;;;;;;9.85;3.80;;;;;;;-147.53;100.00;57128.34;10386915;28;20057;-76
2023/06/17 18:29:18;;;;;;;11.45;3.80;;;;;;;-147.53;100.00;57128.34;10389330;28;20049;-76
2023/06/17 18:34:20;;;;;;;9.18;4.20;;;;;;;-147.53;100.00;57128.34;10386501;28;20077;-78
2023/06/17 18:39:22;;;;;;;8.00;3.83;;;;;;;-147.53;100.00;57128.34;10422352;28;20049;-77
2023/06/17 18:44:23;;;;;;;9.38;3.58;;;;;;;-147.53;100.00;57128.34;10388751;28;20107;-77
2023/06/17 18:49:25;;;;;;;10.23;4.28;;;;;;;-147.53;100.00;57128.34;10431308;28;20060;-77
2023/06/17 18:54:27;;;;;;;7.15;3.70;;;;;;;-147.53;100.00;57128.34;10387714;28;20104;-76
2023/06/17 18:59:29;;;;;;;11.00;4.32;;;;;;;-147.53;100.00;57128.34;10385230;28;20049;-76
2023/06/17 19:04:30;;;;;;;12.50;4.78;;;;;;;-147.53;100.00;57128.34;10422181;28;20136;-77
2023/06/17 19:09:32;;;;;;;9.10;4.25;;;;;;;-147.53;100.00;57128.34;10419394;28;20120;-77
2023/06/17 19:14:35;;;;;;;8.07;3.85;;;;;;;-147.53;100.00;57128.34;10381897;28;20050;-77
2023/06/17 19:19:36;;;;;;;8.15;3.50;;;;;;;-147.53;100.00;57128.34;10380794;28;20052;-76
2023/06/17 19:24:38;;;;;;;9.18;3.90;;;;;;;-147.53;100.00;57128.34;10379278;28;20498;-76
2023/06/17 19:29:39;;;;;;;10.18;4.45;;;;;;;-147.53;100.00;57128.34;10382516;28;20056;-76
2023/06/17 19:34:41;;;;;;;6.95;3.63;;;;;;;-147.53;100.00;57128.34;10377959;28;20164;-76
2023/06/17 19:39:43;;;;;;;9.57;4.00;;;;;;;-147.53;100.00;57128.34;10381580;28;20060;-77
2023/06/17 19:44:45;;;;;;;7.80;4.30;;;;;;;-147.53;100.00;57128.34;10389409;28;20071;-77
2023/06/17 19:49:46;;;;;;;11.57;5.20;;;;;;;-147.53;100.00;57128.34;10386351;28;20121;-76
2023/06/17 19:54:48;;;;;;;11.02;4.35;;;;;;;-147.53;100.00;57128.34;10386809;28;20072;-77
2023/06/17 19:59:50;;;;;;;9.52;4.75;;;;;;;-147.53;100.00;57128.34;10387016;28;20041;-77
2023/06/17 20:04:52;;;;;;;9.75;4.63;;;;;;;-147.53;100.00;57128.34;10384486;28;20084;-77
2023/06/17 20:09:54;;;;;;;11.77;4.60;;;;;;;-147.53;100.00;57128.34;10390297;28;20523;-77
2023/06/17 20:14:56;;;;;;;11.73;4.93;;;;;;;-147.53;100.00;57128.34;10429058;28;20684;-77
2023/06/17 20:19:57;;;;;;;10.43;3.85;;;;;;;-147.53;100.00;57128.34;10392202;28;20089;-77
2023/06/17 20:24:59;;;;;;;9.23;3.58;;;;;;;-147.53;100.00;57128.34;10393318;28;20125;-78
2023/06/17 20:30:00;;;;;;;11.75;3.78;;;;;;;-147.53;100.00;57128.34;10391881;28;20107;-76
2023/06/17 20:35:02;;;;;;;10.18;4.35;;;;;;;-147.53;100.00;57128.34;10389477;28;20042;-77
2023/06/17 20:40:04;;;;;;;9.13;3.88;;;;;;;-147.53;100.00;57128.34;10389484;28;20137;-77
2023/06/17 20:45:07;;;;;;;7.88;3.60;;;;;;;-147.53;100.00;57128.34;10385242;28;20478;-76
2023/06/17 20:50:10;;;;;;;9.45;4.00;;;;;;;-147.53;100.00;57128.34;10388216;28;20100;-77
2023/06/17 20:55:12;;;;;;;9.98;4.18;;;;;;;-147.53;100.00;57128.34;10386382;28;20053;-77
2023/06/17 21:00:14;;;;;;;9.82;4.45;;;;;;;-147.53;100.00;57128.34;10386742;28;20062;-77
2023/06/17 21:05:15;;;;;;;9.68;3.97;;;;;;;-147.53;100.00;57128.34;10389997;28;20042;-77
2023/06/17 21:10:18;;;;;;;12.05;3.97;;;;;;;-147.53;100.00;57128.34;10385587;28;20048;-77
2023/06/17 21:15:20;;;;;;;10.60;4.93;;;;;;;-147.53;100.00;57128.34;10428430;28;20104;-77
2023/06/17 21:20:22;;;;;;;8.15;3.55;;;;;;;-147.53;100.00;57128.34;10384321;28;20046;-77
2023/06/17 21:25:24;;;;;;;9.02;4.18;;;;;;;-147.53;100.00;57128.34;10387072;28;20053;-77
2023/06/17 21:30:26;;;;;;;13.30;4.85;;;;;;;-147.53;100.00;57128.34;10389875;28;20083;-77
2023/06/17 21:35:28;;;;;;;10.55;4.07;;;;;;;-147.53;100.00;57128.34;10418111;28;20076;-77
2023/06/17 21:40:30;;;;;;;13.23;4.65;;;;;;;-147.53;100.00;57128.34;10380949;28;20053;-77
2023/06/17 21:45:31;;;;;;;9.23;3.88;;;;;;;-147.53;100.00;57128.34;10417392;28;20545;-77
2023/06/17 21:50:33;;;;;;;11.88;4.47;;;;;;;-147.53;100.00;57128.34;10385883;28;20045;-76
2023/06/17 21:55:35;;;;;;;11.68;4.15;;;;;;;-147.53;100.00;57128.34;10382312;28;20040;-77
2023/06/17 22:00:36;;;;;;;10.27;4.40;;;;;;;-147.53;100.00;57128.34;10380980;28;20099;-77
2023/06/17 22:05:38;;;;;;;11.20;4.57;;;;;;;-147.53;100.00;57128.34;10379990;28;20135;-77
2023/06/17 22:10:40;;;;;;;10.93;4.68;;;;;;;-147.53;100.00;57128.34;10378936;28;20132;-77
2023/06/17 22:15:41;;;;;;;10.93;5.53;;;;;;;-147.53;100.00;57128.34;10383891;28;20095;-77
2023/06/17 22:20:43;;;;;;;14.80;5.47;;;;;;;-147.53;100.00;57128.34;10379629;28;20423;-77
2023/06/17 22:25:44;;;;;;;11.60;5.40;;;;;;;-147.53;100.00;57128.34;10415319;28;20045;-77
2023/06/17 22:30:46;;;;;;;13.15;5.30;;;;;;;-147.53;100.00;57128.34;10381274;28;20127;-77
2023/06/17 22:35:48;;;;;;;11.05;4.78;;;;;;;-147.53;100.00;57128.34;10380799;28;20059;-77